Time;durP1;ratioP1;P1;durP2;ratioP2;P2;SDS_P1;SDS_P2;PMS_P1;PMS_P2;Temp;Humidity;BMP_temperature;BMP_pressure;BME280_temperature;BME280_humidity;BME280_pressure;Samples;Min_cycle;Max_cycle;Signal;HPM_P1;HPM_P2
2022/08/03 00:01:15;;;;;;;;;;;;;;;30.81;73.96;98958.94;5059876;28;20074;-40
2022/08/03 00:03:40;;;;;;;;;;;;;;;30.60;74.40;98958.78;5061635;28;19969;-40
2022/08/03 00:06:06;;;;;;;;;;;;;;;30.55;75.29;98955.84;5058386;28;20383;-40
2022/08/03 00:08:31;;;;;;;;;;;;;;;30.30;75.58;98950.72;5064699;28;20352;-40
2022/08/03 00:10:56;;;;;;;;;;;;;;;30.46;74.94;98951.59;5062854;28;19920;-40
2022/08/03 00:13:21;;;;;;;;;;;;;;;30.25;76.41;98953.03;5058251;28;20267;-39
2022/08/03 00:15:47;;;;;;;;;;;;;;;30.38;75.52;98950.66;5058029;28;19970;-39
2022/08/03 00:18:12;;;;;;;;;;;;;;;30.24;78.00;98948.72;5065727;28;19971;-39
2022/08/03 00:20:37;;;;;;;;;;;;;;;30.04;77.67;98940.41;5042116;28;19947;-38
2022/08/03 00:23:03;;;;;;;;;;;;;;;30.22;76.86;98945.41;5068245;28;19927;-50
2022/08/03 00:25:28;;;;;;;;;;;;;;;30.03;77.99;98936.09;5059123;28;20527;-49
2022/08/03 00:27:53;;;;;;;;;;;;;;;30.13;76.95;98935.84;5055073;28;19927;-47
2022/08/03 00:30:19;;;;;;;;;;;;;;;29.94;77.38;98937.13;5059695;28;19963;-48
2022/08/03 00:32:44;;;;;;;;;;;;;;;29.99;76.98;98935.63;5061249;28;19931;-50
2022/08/03 00:35:10;;;;;;;;;;;;;;;30.15;76.61;98934.69;5066280;28;19916;-50
2022/08/03 00:37:36;;;;;;;;;;;;;;;29.94;77.44;98937.13;5060801;28;19920;-50
2022/08/03 00:40:01;;;;;;;;;;;;;;;29.81;78.78;98932.41;5055216;28;19959;-49
2022/08/03 00:42:26;;;;;;;;;;;;;;;29.90;78.30;98926.06;5061231;28;19965;-49
2022/08/03 00:44:51;;;;;;;;;;;;;;;29.93;77.46;98920.38;5055515;28;19989;-47
2022/08/03 00:47:16;;;;;;;;;;;;;;;30.03;77.15;98928.13;5064793;28;19919;-47
2022/08/03 00:49:42;;;;;;;;;;;;;;;29.80;77.57;98925.44;5054269;28;19932;-49
2022/08/03 00:52:07;;;;;;;;;;;;;;;29.94;77.32;98922.03;5060797;28;19927;-49
2022/08/03 00:54:33;;;;;;;;;;;;;;;29.93;77.54;98916.91;5057030;28;19988;-50
2022/08/03 00:56:58;;;;;;;;;;;;;;;29.88;77.73;98921.91;5055923;28;19931;-50
2022/08/03 00:59:23;;;;;;;;;;;;;;;29.63;78.55;98922.03;5056950;28;19970;-49
2022/08/03 01:01:48;;;;;;;;;;;;;;;29.56;79.27;98924.53;5056569;28;19971;-48
2022/08/03 01:04:14;;;;;;;;;;;;;;;29.63;78.60;98923.81;5060663;28;19916;-50
2022/08/03 01:06:45;;;;;;;;;;;;;;;29.72;78.54;98921.00;5059780;28;20641;-48
2022/08/03 01:09:10;;;;;;;;;;;;;;;29.30;81.01;98913.38;5060602;28;19920;-47
2022/08/03 01:11:37;;;;;;;;;;;;;;;29.54;79.78;98915.91;5068894;28;19916;-48
2022/08/03 01:14:08;;;;;;;;;;;;;;;29.55;78.92;98917.56;5053023;28;19931;-51
2022/08/03 01:16:46;;;;;;;;;;;;;;;29.58;79.18;98905.75;5061249;28;20031;-49
2022/08/03 01:19:11;;;;;;;;;;;;;;;29.60;78.79;98903.78;5054729;28;19973;-50
2022/08/03 01:21:45;;;;;;;;;;;;;;;29.49;79.46;98902.34;5061393;28;19922;-48
2022/08/03 01:24:29;;;;;;;;;;;;;;;29.38;79.46;98905.38;5058268;28;20014;-49
2022/08/03 01:26:59;;;;;;;;;;;;;;;29.08;81.15;98905.16;5054962;28;19943;-48
2022/08/03 01:29:37;;;;;;;;;;;;;;;29.10;81.09;98908.47;5060315;28;19927;-51
2022/08/03 01:32:04;;;;;;;;;;;;;;;29.13;82.19;98904.66;5062113;28;20612;-49
2022/08/03 01:34:30;;;;;;;;;;;;;;;29.21;81.55;98903.78;5058306;28;19924;-49
2022/08/03 01:36:55;;;;;;;;;;;;;;;29.36;81.27;98897.59;5062643;28;19916;-50
2022/08/03 01:39:21;;;;;;;;;;;;;;;29.03;81.93;98904.78;5061658;28;19927;-51
2022/08/03 01:41:58;;;;;;;;;;;;;;;29.20;82.22;98897.66;5059391;28;19920;-50
2022/08/03 01:44:25;;;;;;;;;;;;;;;28.87;81.38;98902.19;5058189;28;20544;-48
2022/08/03 01:46:50;;;;;;;;;;;;;;;28.80;82.01;98890.59;5060751;28;19943;-48
2022/08/03 01:49:16;;;;;;;;;;;;;;;29.12;82.53;98887.88;5055112;28;20369;-48
2022/08/03 01:51:41;;;;;;;;;;;;;;;29.11;82.28;98888.91;5056793;28;20293;-47
2022/08/03 01:54:08;;;;;;;;;;;;;;;29.18;81.49;98889.84;5067909;28;20160;-48
2022/08/03 01:56:33;;;;;;;;;;;;;;;28.81;83.23;98894.88;5063310;28;20034;-47
2022/08/03 01:58:58;;;;;;;;;;;;;;;29.12;82.34;98887.06;5061927;28;19920;-51
2022/08/03 02:01:24;;;;;;;;;;;;;;;28.73;82.51;98885.97;5054018;28;20003;-51
2022/08/03 02:03:49;;;;;;;;;;;;;;;28.85;82.82;98893.56;5057643;28;20539;-50
2022/08/03 02:06:14;;;;;;;;;;;;;;;28.74;84.18;98898.22;5057390;28;20058;-48
2022/08/03 02:08:39;;;;;;;;;;;;;;;28.87;84.25;98891.56;5067429;28;20456;-49
2022/08/03 02:11:04;;;;;;;;;;;;;;;28.71;83.44;98889.78;5055003;28;20522;-48
2022/08/03 02:13:30;;;;;;;;;;;;;;;28.40;85.84;98901.06;5053348;28;19920;-48
2022/08/03 02:15:55;;;;;;;;;;;;;;;28.47;85.82;98890.66;5057912;28;19923;-47
2022/08/03 02:18:20;;;;;;;;;;;;;;;28.64;85.81;98892.28;5057110;28;19928;-48
2022/08/03 02:20:46;;;;;;;;;;;;;;;28.17;87.54;98895.59;5057969;28;19920;-47
2022/08/03 02:23:12;;;;;;;;;;;;;;;28.07;87.62;98895.72;5059625;28;20011;-51
2022/08/03 02:25:41;;;;;;;;;;;;;;;28.36;85.89;98895.25;5058406;28;20424;-49
2022/08/03 02:28:07;;;;;;;;;;;;;;;28.26;86.30;98894.59;5055376;28;20023;-48
2022/08/03 02:30:37;;;;;;;;;;;;;;;28.21;86.75;98896.88;5060062;28;19920;-48
2022/08/03 02:33:02;;;;;;;;;;;;;;;28.35;86.18;98893.59;5059216;28;19954;-49
2022/08/03 02:35:28;;;;;;;;;;;;;;;28.36;86.98;98899.72;5060031;28;20740;-47
2022/08/03 02:37:55;;;;;;;;;;;;;;;28.29;86.90;98896.91;5056533;28;19920;-48
2022/08/03 02:40:20;;;;;;;;;;;;;;;28.43;86.69;98894.59;5060772;28;20559;-51
2022/08/03 02:42:46;;;;;;;;;;;;;;;28.51;86.10;98891.94;5055646;28;19923;-48
2022/08/03 02:45:12;;;;;;;;;;;;;;;28.25;86.34;98887.63;5063373;28;19931;-49
2022/08/03 02:47:38;;;;;;;;;;;;;;;28.31;86.60;98889.63;5059011;28;19916;-49
2022/08/03 02:50:04;;;;;;;;;;;;;;;28.00;86.52;98894.72;5055977;28;19923;-49
2022/08/03 02:52:29;;;;;;;;;;;;;;;27.50;89.34;98893.75;5061669;28;20521;-49
2022/08/03 02:54:57;;;;;;;;;;;;;;;27.97;87.95;98884.47;5062771;28;19920;-48
2022/08/03 02:57:22;;;;;;;;;;;;;;;27.92;87.14;98887.59;5062325;28;19917;-50
2022/08/03 02:59:47;;;;;;;;;;;;;;;27.91;88.33;98888.59;5062026;28;19920;-47
2022/08/03 03:02:14;;;;;;;;;;;;;;;27.84;88.94;98887.59;5063471;28;19921;-50
2022/08/03 03:04:39;;;;;;;;;;;;;;;27.86;88.49;98888.25;5060123;28;19959;-47
2022/08/03 03:07:04;;;;;;;;;;;;;;;27.94;87.88;98884.81;5060063;28;20011;-50
2022/08/03 03:09:29;;;;;;;;;;;;;;;27.71;88.35;98884.53;5066895;28;19977;-48
2022/08/03 03:11:54;;;;;;;;;;;;;;;28.03;88.21;98896.22;5061034;28;20113;-47
2022/08/03 03:14:20;;;;;;;;;;;;;;;27.71;88.49;98895.97;5067300;28;19940;-48
2022/08/03 03:16:45;;;;;;;;;;;;;;;27.61;90.68;98894.44;5067037;28;19927;-49
2022/08/03 03:19:10;;;;;;;;;;;;;;;27.75;89.65;98889.34;5055557;28;19931;-50
2022/08/03 03:21:36;;;;;;;;;;;;;;;27.86;88.63;98888.25;5063967;28;19974;-47
2022/08/03 03:24:01;;;;;;;;;;;;;;;27.49;91.07;98894.75;5058059;28;19928;-49
2022/08/03 03:26:26;;;;;;;;;;;;;;;27.58;90.83;98892.13;5060966;28;20192;-47
2022/08/03 03:28:51;;;;;;;;;;;;;;;27.66;89.27;98892.13;5060285;28;19942;-52
2022/08/03 03:31:16;;;;;;;;;;;;;;;27.73;89.71;98887.84;5062573;28;19917;-48
2022/08/03 03:33:42;;;;;;;;;;;;;;;27.67;89.45;98893.81;5066885;28;19931;-49
2022/08/03 03:36:07;;;;;;;;;;;;;;;27.77;88.39;98891.84;5058761;28;20434;-50
2022/08/03 03:38:32;;;;;;;;;;;;;;;27.66;89.72;98892.97;5056187;28;20334;-48
2022/08/03 03:40:58;;;;;;;;;;;;;;;27.62;89.16;98883.72;5056958;28;20042;-47
2022/08/03 03:43:23;;;;;;;;;;;;;;;27.32;90.55;98885.06;5057464;28;20428;-49
2022/08/03 03:45:50;;;;;;;;;;;;;;;27.36;90.21;98891.72;5058062;28;19955;-50
2022/08/03 03:48:15;;;;;;;;;;;;;;;27.38;91.75;98894.19;5060778;28;19916;-48
2022/08/03 03:50:40;;;;;;;;;;;;;;;27.08;92.33;98889.25;5059827;28;19938;-47
2022/08/03 03:53:07;;;;;;;;;;;;;;;27.32;91.07;98887.72;5057373;28;19943;-47
2022/08/03 03:55:33;;;;;;;;;;;;;;;27.45;90.47;98889.94;5066648;28;19977;-49
2022/08/03 03:57:58;;;;;;;;;;;;;;;27.54;89.57;98889.78;5056659;28;19921;-49
2022/08/03 04:00:23;;;;;;;;;;;;;;;27.45;88.56;98890.75;5061651;28;19924;-49
2022/08/03 04:02:48;;;;;;;;;;;;;;;27.10;90.87;98892.56;5060394;28;20603;-50
2022/08/03 04:10:59;;;;;;;;;;;;;;;27.31;89.96;98888.72;5060235;28;20023;-49
2022/08/03 04:13:33;;;;;;;;;;;;;;;27.52;89.68;98881.19;5054667;28;20332;-47
2022/08/03 04:15:58;;;;;;;;;;;;;;;27.35;89.54;98889.22;5063297;28;19959;-50
2022/08/03 04:18:23;;;;;;;;;;;;;;;27.31;89.63;98886.06;5061835;28;20031;-51
2022/08/03 04:20:49;;;;;;;;;;;;;;;27.59;90.27;98884.00;5059599;28;19960;-49
2022/08/03 04:23:15;;;;;;;;;;;;;;;27.36;91.15;98891.72;5062341;28;20169;-48
2022/08/03 04:25:40;;;;;;;;;;;;;;;27.12;90.82;98890.59;5062761;28;20326;-47
2022/08/03 04:28:05;;;;;;;;;;;;;;;27.50;88.59;98891.09;5055873;28;19927;-47
2022/08/03 04:30:31;;;;;;;;;;;;;;;26.36;93.50;98904.41;5065113;28;19923;-49
2022/08/03 04:32:56;;;;;;;;;;;;;;;27.08;93.01;98902.47;5059226;28;20368;-50
2022/08/03 04:35:22;;;;;;;;;;;;;;;27.11;91.11;98902.13;5062250;28;20014;-49
2022/08/03 04:37:48;;;;;;;;;;;;;;;27.09;91.63;98901.47;5061780;28;19927;-48
2022/08/03 04:40:14;;;;;;;;;;;;;;;27.21;90.79;98899.44;5055465;28;19920;-48
2022/08/03 04:42:40;;;;;;;;;;;;;;;27.03;90.94;98906.56;5063248;28;19959;-49
2022/08/03 04:45:05;;;;;;;;;;;;;;;26.76;92.17;98905.75;5063029;28;20011;-49
2022/08/03 04:47:33;;;;;;;;;;;;;;;27.23;91.47;98905.38;5059925;28;19920;-48
2022/08/03 04:50:00;;;;;;;;;;;;;;;27.62;90.75;98896.09;5061804;28;19929;-49
2022/08/03 04:52:26;;;;;;;;;;;;;;;27.60;91.33;98904.22;5055826;28;19965;-49
2022/08/03 04:54:51;;;;;;;;;;;;;;;27.73;88.61;98903.72;5061609;28;20468;-50
2022/08/03 04:57:17;;;;;;;;;;;;;;;27.60;88.91;98900.72;5061961;28;19916;-50
2022/08/03 04:59:42;;;;;;;;;;;;;;;27.56;89.57;98896.75;5059509;28;20309;-48
2022/08/03 05:02:07;;;;;;;;;;;;;;;27.44;89.76;98904.16;5059826;28;20397;-48
2022/08/03 05:04:33;;;;;;;;;;;;;;;27.81;91.18;98901.13;5066135;28;19960;-49
2022/08/03 05:06:58;;;;;;;;;;;;;;;26.97;93.15;98912.47;5059623;28;20061;-49
2022/08/03 05:09:23;;;;;;;;;;;;;;;27.80;89.32;98904.72;5065072;28;19997;-51
2022/08/03 05:11:48;;;;;;;;;;;;;;;27.94;89.66;98904.16;5061767;28;19954;-49
2022/08/03 05:14:13;;;;;;;;;;;;;;;27.98;87.82;98901.19;5061588;28;19921;-48
2022/08/03 05:16:39;;;;;;;;;;;;;;;28.18;88.93;98901.69;5063481;28;19923;-49
2022/08/03 05:19:04;;;;;;;;;;;;;;;28.10;87.79;98898.06;5055798;28;20031;-50
2022/08/03 05:21:29;;;;;;;;;;;;;;;27.75;89.43;98901.75;5065251;28;19924;-49
2022/08/03 05:23:54;;;;;;;;;;;;;;;27.38;90.87;98910.91;5066076;28;19926;-49
2022/08/03 05:26:19;;;;;;;;;;;;;;;27.36;91.42;98909.41;5059707;28;19917;-48
2022/08/03 05:28:45;;;;;;;;;;;;;;;28.04;89.21;98901.34;5057741;28;20023;-49
2022/08/03 05:31:11;;;;;;;;;;;;;;;28.26;88.90;98899.91;5059799;28;19999;-51
2022/08/03 05:33:36;;;;;;;;;;;;;;;27.69;89.84;98902.41;5059007;28;19960;-49
2022/08/03 05:36:01;;;;;;;;;;;;;;;27.90;90.16;98897.53;5063329;28;19970;-49
2022/08/03 05:38:26;;;;;;;;;;;;;;;28.08;88.55;98893.94;5060288;28;19931;-50
2022/08/03 05:40:51;;;;;;;;;;;;;;;28.46;88.00;98888.94;5058730;28;20312;-49
2022/08/03 05:43:17;;;;;;;;;;;;;;;28.52;87.01;98893.63;5060867;28;19963;-51
2022/08/03 05:45:42;;;;;;;;;;;;;;;28.72;84.85;98894.94;5061409;28;20346;-50
2022/08/03 05:48:07;;;;;;;;;;;;;;;28.67;85.84;98891.09;5061194;28;19927;-50
2022/08/03 05:50:32;;;;;;;;;;;;;;;28.75;87.48;98893.75;5061987;28;19920;-52
2022/08/03 05:52:58;;;;;;;;;;;;;;;29.34;83.50;98893.44;5054682;28;19916;-48
2022/08/03 05:55:23;;;;;;;;;;;;;;;29.34;82.09;98894.28;5063449;28;19978;-50
2022/08/03 05:57:48;;;;;;;;;;;;;;;29.36;83.75;98899.41;5055616;28;20011;-49
2022/08/03 06:00:14;;;;;;;;;;;;;;;29.23;84.08;98901.78;5068864;28;19920;-52
2022/08/03 06:02:39;;;;;;;;;;;;;;;29.59;81.97;98897.66;5056828;28;20639;-52
2022/08/03 06:05:05;;;;;;;;;;;;;;;29.40;83.66;98904.22;5059901;28;20340;-48
2022/08/03 06:07:30;;;;;;;;;;;;;;;30.12;81.18;98897.03;5060959;28;19916;-51
2022/08/03 06:09:55;;;;;;;;;;;;;;;30.25;82.48;98897.25;5060626;28;20014;-52
2022/08/03 06:12:21;;;;;;;;;;;;;;;29.87;79.99;98905.16;5059774;28;19952;-50
2022/08/03 06:14:46;;;;;;;;;;;;;;;30.24;82.01;98900.91;5063017;28;19916;-49
2022/08/03 06:17:11;;;;;;;;;;;;;;;29.71;81.18;98902.59;5058164;28;19920;-49
2022/08/03 06:19:37;;;;;;;;;;;;;;;29.65;81.56;98905.91;5055096;28;19917;-50
2022/08/03 06:22:02;;;;;;;;;;;;;;;30.19;79.38;98905.94;5057015;28;19928;-50
2022/08/03 06:24:27;;;;;;;;;;;;;;;30.16;80.45;98895.66;5064512;28;20062;-49
2022/08/03 06:26:52;;;;;;;;;;;;;;;30.48;80.69;98902.56;5060669;28;20374;-49
2022/08/03 06:29:17;;;;;;;;;;;;;;;30.81;79.91;98903.09;5057992;28;19946;-48
2022/08/03 06:31:43;;;;;;;;;;;;;;;31.07;77.55;98907.19;5060239;28;19924;-48
2022/08/03 06:34:08;;;;;;;;;;;;;;;30.62;76.82;98900.94;5056345;28;19958;-45
2022/08/03 06:36:33;;;;;;;;;;;;;;;31.00;75.52;98906.25;5056903;28;19917;-51
2022/08/03 06:38:59;;;;;;;;;;;;;;;31.68;74.15;98910.44;5058050;28;20469;-52
2022/08/03 06:41:27;;;;;;;;;;;;;;;30.55;78.17;98913.31;5059052;28;20681;-50
2022/08/03 06:43:53;;;;;;;;;;;;;;;30.49;78.42;98911.38;5061528;28;19924;-51
2022/08/03 06:46:18;;;;;;;;;;;;;;;30.71;79.19;98915.81;5062691;28;20344;-51
2022/08/03 06:48:43;;;;;;;;;;;;;;;31.01;77.05;98910.56;5060691;28;19920;-51
2022/08/03 06:51:09;;;;;;;;;;;;;;;31.60;75.32;98910.53;5061449;28;20014;-52
2022/08/03 06:53:34;;;;;;;;;;;;;;;31.90;74.03;98918.44;5057839;28;20003;-50
2022/08/03 06:55:59;;;;;;;;;;;;;;;31.19;74.88;98916.34;5063132;28;20013;-52
2022/08/03 06:58:24;;;;;;;;;;;;;;;31.40;72.06;98917.44;5056779;28;19921;-52
2022/08/03 07:00:50;;;;;;;;;;;;;;;32.33;69.47;98915.00;5064964;28;19931;-52
2022/08/03 07:03:15;;;;;;;;;;;;;;;32.31;67.73;98912.53;5061659;28;19916;-51
2022/08/03 07:05:42;;;;;;;;;;;;;;;33.27;65.30;98910.16;5055739;28;19917;-52
2022/08/03 07:08:07;;;;;;;;;;;;;;;32.56;67.18;98912.16;5058828;28;19927;-52
2022/08/03 07:10:32;;;;;;;;;;;;;;;32.90;68.75;98906.84;5058097;28;19924;-53
2022/08/03 07:12:57;;;;;;;;;;;;;;;33.03;66.48;98908.78;5058164;28;20423;-50
2022/08/03 07:15:23;;;;;;;;;;;;;;;32.77;66.15;98906.75;5059499;28;20907;-53
2022/08/03 07:17:48;;;;;;;;;;;;;;;31.46;72.04;98914.06;5065081;28;20458;-51
2022/08/03 07:20:14;;;;;;;;;;;;;;;32.50;72.80;98914.56;5057465;28;19923;-54
2022/08/03 07:22:39;;;;;;;;;;;;;;;32.91;67.70;98905.84;5065926;28;20362;-49
2022/08/03 07:25:04;;;;;;;;;;;;;;;32.98;65.74;98910.38;5046519;28;19966;-51
2022/08/03 07:27:30;;;;;;;;;;;;;;;33.35;66.33;98917.19;5058855;28;19920;-52
2022/08/03 07:29:55;;;;;;;;;;;;;;;33.01;67.26;98920.69;5057029;28;19924;-52
2022/08/03 07:32:21;;;;;;;;;;;;;;;33.76;64.31;98919.03;5055932;28;20549;-55
2022/08/03 07:34:46;;;;;;;;;;;;;;;33.59;62.14;98918.56;5057801;28;19924;-54
2022/08/03 07:37:11;;;;;;;;;;;;;;;33.29;63.07;98924.16;5057684;28;19924;-54
2022/08/03 07:39:36;;;;;;;;;;;;;;;33.45;62.29;98916.81;5056417;28;19920;-53
2022/08/03 07:42:02;;;;;;;;;;;;;;;33.86;61.69;98919.47;5056345;28;21051;-53
2022/08/03 07:44:27;;;;;;;;;;;;;;;34.51;59.40;98914.44;5056387;28;20682;-55
2022/08/03 07:46:52;;;;;;;;;;;;;;;35.09;54.66;98913.75;5058440;28;19974;-54
2022/08/03 07:49:17;;;;;;;;;;;;;;;35.52;54.45;98920.44;5043288;28;19977;-53
2022/08/03 07:51:43;;;;;;;;;;;;;;;34.78;53.40;98922.44;5053694;28;20017;-53
2022/08/03 07:54:09;;;;;;;;;;;;;;;34.47;57.83;98921.22;5059090;28;20595;-54
2022/08/03 07:56:34;;;;;;;;;;;;;;;34.42;55.31;98913.00;5055214;28;19966;-54
2022/08/03 07:59:01;;;;;;;;;;;;;;;34.58;55.21;98923.28;5055636;28;19920;-54
2022/08/03 08:01:26;;;;;;;;;;;;;;;34.22;58.06;98920.19;5058389;28;19924;-53
2022/08/03 08:03:51;;;;;;;;;;;;;;;35.12;55.15;98917.91;5061193;28;19986;-51
2022/08/03 08:06:17;;;;;;;;;;;;;;;35.40;54.54;98920.28;5061134;28;20011;-53
2022/08/03 08:08:42;;;;;;;;;;;;;;;35.12;55.56;98924.06;5065098;28;20213;-52
2022/08/03 08:11:07;;;;;;;;;;;;;;;35.16;55.08;98919.13;5062524;28;19929;-51
2022/08/03 08:13:33;;;;;;;;;;;;;;;35.70;53.31;98920.59;5057366;28;19925;-53
2022/08/03 08:15:58;;;;;;;;;;;;;;;35.70;54.16;98920.59;5057712;28;19920;-56
2022/08/03 08:18:24;;;;;;;;;;;;;;;36.80;48.20;98914.88;5057431;28;20374;-54
2022/08/03 08:20:49;;;;;;;;;;;;;;;35.83;50.00;98916.19;5060400;28;19931;-55
2022/08/03 08:23:16;;;;;;;;;;;;;;;35.31;52.55;98917.03;5061292;28;19913;-53
2022/08/03 08:25:41;;;;;;;;;;;;;;;34.95;51.44;98918.31;5059917;28;20538;-53
2022/08/03 08:28:06;;;;;;;;;;;;;;;34.73;52.64;98917.72;5059036;28;19926;-50
2022/08/03 08:30:32;;;;;;;;;;;;;;;35.97;51.14;98921.25;5069705;28;20526;-53
2022/08/03 08:32:57;;;;;;;;;;;;;;;37.04;47.43;98913.19;5065177;28;20025;-53
2022/08/03 08:35:23;;;;;;;;;;;;;;;36.16;49.45;98914.16;5063213;28;19931;-54
2022/08/03 08:37:48;;;;;;;;;;;;;;;35.73;49.71;98919.34;5063500;28;20182;-52
2022/08/03 08:40:13;;;;;;;;;;;;;;;34.98;51.59;98917.88;5064313;28;20000;-53
2022/08/03 08:42:39;;;;;;;;;;;;;;;36.33;47.92;98910.94;5055275;28;20336;-50
2022/08/03 08:45:05;;;;;;;;;;;;;;;36.60;48.92;98912.38;5059072;28;20085;-54
2022/08/03 08:47:31;;;;;;;;;;;;;;;36.95;46.83;98921.75;5060831;28;19967;-52
2022/08/03 08:49:57;;;;;;;;;;;;;;;37.14;45.89;98906.50;5056906;28;20058;-54
2022/08/03 08:52:26;;;;;;;;;;;;;;;36.29;47.37;98921.28;5057031;28;19961;-53
2022/08/03 08:54:56;;;;;;;;;;;;;;;36.66;48.54;98923.28;5058488;28;20010;-51
2022/08/03 08:57:22;;;;;;;;;;;;;;;37.94;44.06;98911.69;5058668;28;19927;-56
2022/08/03 08:59:47;;;;;;;;;;;;;;;36.89;48.28;98918.09;5063138;28;19927;-53
2022/08/03 09:02:12;;;;;;;;;;;;;;;38.39;44.87;98908.53;5062869;28;19924;-55
2022/08/03 09:04:37;;;;;;;;;;;;;;;37.39;45.72;98917.16;5061120;28;19927;-54
2022/08/03 09:07:03;;;;;;;;;;;;;;;37.03;48.77;98908.84;5065019;28;19921;-56
2022/08/03 09:09:28;;;;;;;;;;;;;;;36.70;45.57;98906.53;5067355;28;19916;-56
2022/08/03 09:11:53;;;;;;;;;;;;;;;37.51;50.56;98909.16;5062078;28;20444;-55
2022/08/03 09:14:19;;;;;;;;;;;;;;;37.62;47.34;98911.13;5066201;28;19916;-55
2022/08/03 09:17:05;;;;;;;;;;;;;;;37.33;46.08;98908.13;5064683;28;19927;-56
2022/08/03 09:19:31;;;;;;;;;;;;;;;37.22;50.24;98911.56;5058965;28;20019;-55
2022/08/03 09:22:12;;;;;;;;;;;;;;;38.29;46.55;98911.78;5059615;28;19924;-55
2022/08/03 09:24:37;;;;;;;;;;;;;;;37.45;44.06;98905.50;5068704;28;20317;-55
2022/08/03 09:27:07;;;;;;;;;;;;;;;39.08;41.57;98914.19;5056134;28;19931;-56
2022/08/03 09:29:32;;;;;;;;;;;;;;;38.27;43.07;98907.69;5062301;28;19916;-56
2022/08/03 09:32:03;;;;;;;;;;;;;;;37.63;46.95;98912.75;5056708;28;19920;-56
2022/08/03 09:34:29;;;;;;;;;;;;;;;38.98;44.80;98913.97;5060709;28;19916;-56
2022/08/03 09:36:54;;;;;;;;;;;;;;;37.46;48.55;98917.91;5057869;28;19928;-55
2022/08/03 09:39:24;;;;;;;;;;;;;;;38.69;43.63;98910.34;5059844;28;19916;-56
2022/08/03 09:42:03;;;;;;;;;;;;;;;39.34;40.02;98909.31;5058872;28;19935;-56
2022/08/03 09:44:35;;;;;;;;;;;;;;;39.20;40.43;98906.06;5060471;28;19951;-56
2022/08/03 09:47:00;;;;;;;;;;;;;;;37.92;41.07;98910.28;5058521;28;19990;-56
2022/08/03 09:49:26;;;;;;;;;;;;;;;37.62;47.11;98911.13;5055649;28;19973;-55
2022/08/03 09:51:51;;;;;;;;;;;;;;;38.56;42.98;98900.63;5057916;28;20358;-56
2022/08/03 09:54:29;;;;;;;;;;;;;;;37.72;43.78;98908.69;5058829;28;20364;-56
2022/08/03 09:56:55;;;;;;;;;;;;;;;37.14;43.59;98901.13;5059665;28;19916;-55
2022/08/03 09:59:24;;;;;;;;;;;;;;;39.30;44.27;98905.47;5057810;28;19995;-56
2022/08/03 10:01:50;;;;;;;;;;;;;;;40.73;38.80;98886.44;5064115;28;20002;-55
2022/08/03 10:04:17;;;;;;;;;;;;;;;38.19;40.87;98899.97;5059183;28;20214;-56
2022/08/03 10:06:44;;;;;;;;;;;;;;;39.11;40.28;98894.84;5058132;28;20607;-56
2022/08/03 10:09:15;;;;;;;;;;;;;;;39.18;38.40;98891.22;5041566;28;20027;-56
2022/08/03 10:11:41;;;;;;;;;;;;;;;39.07;46.87;98901.78;5064998;28;19916;-56
2022/08/03 10:14:07;;;;;;;;;;;;;;;39.64;41.06;98902.91;5054390;28;20511;-56
2022/08/03 10:16:36;;;;;;;;;;;;;;;39.87;43.87;98908.25;5062445;28;19920;-56
2022/08/03 10:19:03;;;;;;;;;;;;;;;39.91;41.88;98901.28;5053620;28;19924;-55
2022/08/03 10:21:30;;;;;;;;;;;;;;;39.23;42.32;98894.00;5058894;28;19955;-56
2022/08/03 10:23:56;;;;;;;;;;;;;;;38.83;47.04;98895.56;5060239;28;19987;-56
2022/08/03 10:26:21;;;;;;;;;;;;;;;39.09;43.32;98904.22;5055659;28;20329;-57
2022/08/03 10:28:48;;;;;;;;;;;;;;;38.39;43.96;98895.09;5054071;28;20011;-56
2022/08/03 10:31:13;;;;;;;;;;;;;;;39.05;42.29;98898.50;5053500;28;19966;-56
2022/08/03 10:33:41;;;;;;;;;;;;;;;40.25;41.49;98893.22;5057402;28;19916;-56
2022/08/03 10:36:06;;;;;;;;;;;;;;;39.92;40.22;98897.53;5064438;28;19916;-56
2022/08/03 10:38:33;;;;;;;;;;;;;;;39.73;36.66;98883.44;5055725;28;19923;-56
2022/08/03 10:40:58;;;;;;;;;;;;;;;38.50;42.35;98880.00;5059514;28;20179;-57
2022/08/03 10:43:27;;;;;;;;;;;;;;;39.41;40.82;98888.47;5061430;28;19917;-56
2022/08/03 10:45:53;;;;;;;;;;;;;;;40.99;37.32;98875.97;5062502;28;20011;-56
2022/08/03 10:48:18;;;;;;;;;;;;;;;40.42;37.26;98876.22;5053112;28;19917;-56
2022/08/03 10:50:44;;;;;;;;;;;;;;;40.91;35.12;98873.72;5058509;28;20446;-56
2022/08/03 10:53:09;;;;;;;;;;;;;;;41.47;36.64;98871.69;5052249;28;19938;-57
2022/08/03 10:58:38;;;;;;;;;;;;;;;39.00;41.45;98879.53;5061626;28;19931;-56
2022/08/03 11:01:03;;;;;;;;;;;;;;;41.42;40.18;98866.22;5064809;28;20009;-57
2022/08/03 11:03:28;;;;;;;;;;;;;;;40.85;35.56;98858.50;5066754;28;20362;-56
2022/08/03 11:05:55;;;;;;;;;;;;;;;40.93;34.91;98863.47;5057741;28;19966;-56
2022/08/03 11:08:23;;;;;;;;;;;;;;;41.12;32.71;98859.41;5061470;28;19939;-56
2022/08/03 11:10:49;;;;;;;;;;;;;;;42.14;32.23;98858.81;5058953;28;20475;-56
2022/08/03 11:13:16;;;;;;;;;;;;;;;41.86;33.54;98860.75;5061582;28;20004;-56
2022/08/03 11:15:42;;;;;;;;;;;;;;;43.12;32.48;98854.81;5060190;28;20017;-56
2022/08/03 11:18:11;;;;;;;;;;;;;;;41.26;35.83;98859.00;5063445;28;19916;-57
2022/08/03 11:20:43;;;;;;;;;;;;;;;42.51;34.08;98852.59;5060591;28;19916;-57
2022/08/03 11:23:08;;;;;;;;;;;;;;;40.69;35.08;98852.91;5057390;28;19917;-57
2022/08/03 11:25:53;;;;;;;;;;;;;;;39.97;36.56;98852.84;5064044;28;19916;-57
2022/08/03 11:28:27;;;;;;;;;;;;;;;41.56;36.02;98845.06;5063855;28;20487;-57
2022/08/03 11:30:52;;;;;;;;;;;;;;;41.16;39.37;98852.44;5064166;28;19970;-57
2022/08/03 11:33:30;;;;;;;;;;;;;;;38.46;38.25;98849.25;5060534;28;19925;-57
2022/08/03 11:35:59;;;;;;;;;;;;;;;38.36;41.48;98857.06;5066313;28;19916;-56
2022/08/03 11:38:24;;;;;;;;;;;;;;;39.47;38.87;98844.41;5062022;28;19917;-57
2022/08/03 11:40:49;;;;;;;;;;;;;;;42.47;35.27;98840.66;5059642;28;20404;-56
2022/08/03 11:43:20;;;;;;;;;;;;;;;41.00;36.05;98847.88;5062847;28;19916;-57
2022/08/03 11:45:55;;;;;;;;;;;;;;;41.80;33.08;98845.53;5057831;28;19923;-57
2022/08/03 11:48:20;;;;;;;;;;;;;;;40.43;35.71;98853.59;5063637;28;19926;-57
2022/08/03 11:50:45;;;;;;;;;;;;;;;39.70;36.15;98850.72;5058344;28;19916;-57
2022/08/03 11:53:15;;;;;;;;;;;;;;;38.56;39.44;98860.25;5058231;28;20081;-57
2022/08/03 11:55:43;;;;;;;;;;;;;;;42.28;36.03;98853.78;5064494;28;19916;-57
2022/08/03 11:58:13;;;;;;;;;;;;;;;41.74;33.85;98846.56;5058855;28;20431;-57
2022/08/03 12:00:39;;;;;;;;;;;;;;;39.35;38.92;98861.66;5070179;28;20503;-57
2022/08/03 12:03:06;;;;;;;;;;;;;;;39.46;42.04;98861.63;5062088;28;20091;-57
2022/08/03 12:05:32;;;;;;;;;;;;;;;41.80;36.02;98856.34;5060180;28;19916;-56
2022/08/03 12:07:58;;;;;;;;;;;;;;;41.46;34.25;98845.72;5063496;28;20555;-57
2022/08/03 12:10:24;;;;;;;;;;;;;;;42.52;35.77;98851.53;5063725;28;19927;-57
2022/08/03 12:12:53;;;;;;;;;;;;;;;43.23;33.42;98845.66;5061876;28;19973;-57
2022/08/03 12:15:23;;;;;;;;;;;;;;;41.34;36.09;98858.56;5060255;28;19927;-57
2022/08/03 12:17:49;;;;;;;;;;;;;;;40.56;37.28;98847.84;5062828;28;19919;-58
2022/08/03 12:20:19;;;;;;;;;;;;;;;39.88;38.96;98850.53;5060015;28;19916;-58
2022/08/03 12:22:45;;;;;;;;;;;;;;;39.22;39.58;98849.28;5065194;28;19926;-58
2022/08/03 12:25:14;;;;;;;;;;;;;;;40.78;36.03;98847.06;5062290;28;19916;-57
2022/08/03 12:27:39;;;;;;;;;;;;;;;39.55;37.47;98853.16;5059483;28;20000;-58
2022/08/03 12:30:05;;;;;;;;;;;;;;;41.83;38.24;98849.59;5067543;28;20011;-57
2022/08/03 12:32:30;;;;;;;;;;;;;;;42.35;34.67;98851.66;5060532;28;20049;-57
2022/08/03 12:34:59;;;;;;;;;;;;;;;43.80;34.87;98849.31;5062875;28;19942;-57
2022/08/03 12:37:25;;;;;;;;;;;;;;;43.22;33.57;98844.84;5061885;28;19965;-58
2022/08/03 12:39:51;;;;;;;;;;;;;;;40.97;36.06;98843.81;5056186;28;20014;-57
2022/08/03 12:42:16;;;;;;;;;;;;;;;41.37;36.31;98852.66;5062780;28;19951;-57
2022/08/03 12:44:41;;;;;;;;;;;;;;;39.00;38.33;98847.22;5059490;28;20359;-57
2022/08/03 12:47:09;;;;;;;;;;;;;;;41.37;36.61;98855.34;5062481;28;20397;-57
2022/08/03 12:49:44;;;;;;;;;;;;;;;43.27;34.22;98840.50;5059113;28;19912;-57
2022/08/03 12:52:10;;;;;;;;;;;;;;;42.95;30.91;98838.75;5062121;28;20642;-57